• Join FlightAware (Why Join?)
  • Login
  • US Flag 
11:23AM EDT


 

Airport Tracker/Info


-or-


 

Live Flight TrackerFlight Track Log ✈ SWA1377 ✈ 01-May-2013 ✈ KSAT - KMDW

Flight Track Log - Related Links

Times and Time Zones

All times are in EDT time to prevent confusion due to time zone crossing. See the SWA1377 flight status page for this flight to view local times or setup timezone preferences in your user account.

Time Position Orientation Groundspeed Altitude Reporting Facility
EDT Latitude Longitude Course Direction KTS MPH feet Rate Location/Type
07:10AM 29.5464 -98.4467 39° Northeast 165 190 1,600  Level Houston Center
07:10AM 29.5606 -98.4336 39° Northeast 173 199 2,400 2,760 Climbing Houston Center
07:11AM 29.6122 -98.3967 32° Northeast 233 268 5,300 3,360 Climbing Houston Center
07:12AM 29.6883 -98.3961 360° North 274 315 9,300 3,360 Climbing Houston Center
07:13AM 29.7731 -98.3953 360° North 322 371 12,100 3,300 Climbing Houston Center
07:14AM 29.8747 -98.3944 360° North 343 395 16,000 3,780 Climbing Houston Center
07:15AM 29.9697 -98.3669 14° North 356 410 19,900 3,180 Climbing Houston Center
07:16AM 30.0661 -98.3289 19° North 364 419 22,500 2,640 Climbing Houston Center
07:17AM 30.1697 -98.2872 19° North 391 450 25,300 2,520 Climbing Houston Center
07:18AM 30.2764 -98.2453 19° North 403 464 27,600 2,040 Climbing Houston Center
07:19AM 30.3744 -98.2067 19° North 418 481 29,500 1,860 Climbing Houston Center
07:20AM 30.4889 -98.1622 19° North 427 491 31,400 1,980 Climbing Houston Center
07:21AM 30.6033 -98.1158 19° North 429 494 33,600 1,860 Climbing Houston Center
07:22AM 30.7175 -98.0703 19° North 429 494 35,300 1,380 Climbing Houston Center
07:23AM 30.8347 -98.0242 19° North 435 501 36,500 1,560 Climbing Houston Center
07:24AM 30.9322 -97.9872 18° North 435 501 38,000 1,680 Climbing Fort Worth Center
07:25AM 31.0347 -97.9442 20° North 435 501 39,300 1,200 Climbing Fort Worth Center
07:26AM 31.1497 -97.9011 18° North 435 501 40,400 840 Climbing Fort Worth Center
07:27AM 31.2625 -97.8533 20° North 429 494 41,000 300 Climbing Fort Worth Center
07:28AM 31.3775 -97.8075 19° North 429 494 41,000  Level Fort Worth Center
07:29AM 31.4989 -97.7350 27° Northeast 429 494 41,000  Level Fort Worth Center
07:30AM 31.6033 -97.6622 31° Northeast 435 501 41,000  Level Fort Worth Center
07:31AM 31.7081 -97.5892 31° Northeast 435 501 41,000  Level Fort Worth Center
07:32AM 31.8144 -97.5161 30° Northeast 435 501 41,000  Level Fort Worth Center
07:33AM 31.9169 -97.4453 30° Northeast 435 501 41,000  Level Fort Worth Center
07:34AM 32.0044 -97.3792 33° Northeast 430 495 41,000  Level Fort Worth Center
07:35AM 32.1214 -97.2981 30° Northeast 430 495 41,000  Level Fort Worth Center
07:36AM 32.2153 -97.2317 31° Northeast 430 495 41,000  Level Fort Worth Center
07:37AM 32.3319 -97.1503 31° Northeast 430 495 41,000  Level Fort Worth Center
07:38AM 32.4239 -97.0836 31° Northeast 430 495 41,000  Level Fort Worth Center
07:39AM 32.5406 -97.0019 31° Northeast 435 501 41,000  Level Fort Worth Center
07:40AM 32.6361 -96.9322 32° Northeast 441 507 41,000  Level Fort Worth Center
07:41AM 32.7528 -96.8528 30° Northeast 441 507 41,000  Level Fort Worth Center
07:42AM 32.8464 -96.7853 31° Northeast 435 501 41,000  Level Fort Worth Center
07:43AM 32.9525 -96.7078 31° Northeast 440 506 41,000  Level Fort Worth Center
07:44AM 33.0522 -96.6400 30° Northeast 450 518 41,000  Level Fort Worth Center
07:45AM 33.1831 -96.5447 31° Northeast 450 518 41,000  Level Fort Worth Center
07:46AM 33.2869 -96.4692 31° Northeast 445 512 41,000  Level Fort Worth Center
07:47AM 33.3928 -96.3883 33° Northeast 450 518 41,000  Level Fort Worth Center
07:48AM 33.4986 -96.3125 31° Northeast 450 518 41,000  Level Fort Worth Center
07:49AM 33.6064 -96.2339 31° Northeast 450 518 41,000  Level Fort Worth Center
07:50AM 33.7100 -96.1550 32° Northeast 450 518 41,000  Level Fort Worth Center
07:51AM 33.8197 -96.0758 31° Northeast 450 518 41,000  Level Fort Worth Center
07:52AM 33.9211 -95.9992 32° Northeast 439 505 41,000  Level Fort Worth Center
07:53AM 34.0289 -95.9222 31° Northeast 439 505 41,000  Level Fort Worth Center
07:54AM 34.1364 -95.8403 32° Northeast 449 517 41,000  Level Fort Worth Center
07:55AM 34.2419 -95.7628 31° Northeast 449 517 41,000  Level Fort Worth Center
07:56AM 34.3492 -95.6856 31° Northeast 449 517 41,000  Level Fort Worth Center
07:57AM 34.4567 -95.6028 32° Northeast 449 517 41,000  Level Fort Worth Center
07:58AM 34.5578 -95.5300 31° Northeast 457 526 41,000  Level Fort Worth Center
07:59AM 34.6733 -95.4442 31° Northeast 451 519 41,000  Level Fort Worth Center
08:01AM 34.8656 -95.3000 32° Northeast 453 521 41,000  Level Memphis Center
08:02AM 34.9667 -95.2222 32° Northeast 443 510 41,000  Level Memphis Center
08:03AM 35.0700 -95.1419 32° Northeast 438 504 41,000  Level Memphis Center
08:04AM 35.1731 -95.0642 32° Northeast 438 504 41,000  Level Memphis Center
08:05AM 35.2761 -94.9833 33° Northeast 438 504 41,000  Level Memphis Center
08:06AM 35.3769 -94.9075 32° Northeast 438 504 41,000  Level Memphis Center
08:07AM 35.4800 -94.8264 33° Northeast 438 504 41,000  Level Memphis Center
08:08AM 35.5831 -94.7478 32° Northeast 438 504 41,000  Level Memphis Center
08:09AM 35.6881 -94.6664 32° Northeast 438 504 41,000  Level Memphis Center
08:10AM 35.7908 -94.5847 33° Northeast 443 510 41,000  Level Memphis Center
08:11AM 35.8958 -94.5006 33° Northeast 443 510 41,000  Level Memphis Center
08:12AM 36.0008 -94.4186 32° Northeast 443 510 41,000  Level Memphis Center
08:13AM 36.1014 -94.3386 33° Northeast 443 510 41,000  Level Memphis Center
08:14AM 36.2081 -94.2589 31° Northeast 443 510 41,000  Level Memphis Center
08:16AM 36.3664 -94.1297 33° Northeast 440 506 41,000  Level Kansas City Center
08:17AM 36.4717 -94.0486 32° Northeast 442 509 41,000  Level Kansas City Center
08:18AM 36.5725 -93.9667 33° Northeast 434 499 41,000  Level Kansas City Center
08:19AM 36.6953 -93.8694 32° Northeast 435 501 41,000  Level Kansas City Center
08:20AM 36.7967 -93.7878 33° Northeast 435 501 41,000  Level Kansas City Center
08:21AM 36.8933 -93.7100 33° Northeast 432 497 41,000  Level Kansas City Center
08:22AM 36.9936 -93.6253 34° Northeast 432 497 41,000  Level Kansas City Center
08:23AM 37.0964 -93.5419 33° Northeast 436 502 41,000  Level Kansas City Center
08:24AM 37.2011 -93.4594 32° Northeast 440 506 41,000  Level Kansas City Center
08:25AM 37.3042 -93.3742 33° Northeast 441 507 41,000  Level Kansas City Center
08:26AM 37.4083 -93.2867 34° Northeast 445 512 41,000  Level Kansas City Center
08:27AM 37.5047 -93.1956 37° Northeast 434 499 41,000  Level Kansas City Center
08:28AM 37.6039 -93.1042 36° Northeast 437 503 41,000  Level Kansas City Center
08:29AM 37.7228 -92.9936 36° Northeast 438 504 41,000  Level Kansas City Center
08:30AM 37.8203 -92.9019 37° Northeast 433 498 41,000  Level Kansas City Center
08:31AM 37.9178 -92.8117 36° Northeast 431 496 41,000  Level Kansas City Center
08:32AM 37.9975 -92.7378 36° Northeast 430 495 41,000  Level Kansas City Center
08:33AM 38.1136 -92.6267 37° Northeast 433 498 41,000  Level Kansas City Center
08:34AM 38.2139 -92.5350 36° Northeast 434 499 41,000  Level Kansas City Center
08:35AM 38.3117 -92.4422 37° Northeast 434 499 41,000  Level Kansas City Center
08:36AM 38.4106 -92.3475 37° Northeast 438 504 41,000  Level Kansas City Center
08:37AM 38.5078 -92.2525 37° Northeast 438 504 41,000  Level Kansas City Center
08:38AM 38.6072 -92.1586 36° Northeast 440 506 41,000  Level Kansas City Center
08:39AM 38.7047 -92.0644 37° Northeast 439 505 41,000  Level Kansas City Center
08:40AM 38.8022 -91.9706 37° Northeast 438 504 41,000  Level Kansas City Center
08:41AM 38.8997 -91.8772 37° Northeast 437 503 41,000  Level Kansas City Center
08:42AM 38.9964 -91.7831 37° Northeast 435 501 41,000  Level Kansas City Center
08:43AM 39.1053 -91.6756 37° Northeast 436 502 41,000  Level Kansas City Center
08:44AM 39.2019 -91.5822 37° Northeast 435 501 41,000 -480 Level Kansas City Center
08:45AM 39.3011 -91.4847 37° Northeast 443 510 40,100 -960 Descending Kansas City Center
08:46AM 39.3961 -91.3908 37° Northeast 436 502 39,100 -960 Descending Kansas City Center
08:47AM 39.4892 -91.2994 37° Northeast 426 490 38,200 -900 Descending Kansas City Center
08:48AM 39.5839 -91.2053 37° Northeast 426 490 37,300 -900 Descending Kansas City Center
08:49AM 39.6797 -91.1089 38° Northeast 430 495 36,400 -900 Descending Kansas City Center
08:50AM 39.7797 -90.9883 43° Northeast 436 502 35,500 -840 Descending Kansas City Center
08:51AM 39.8628 -90.8828 44° Northeast 437 503 34,700 -840 Descending Kansas City Center
08:52AM 39.9489 -90.7694 45° Northeast 439 505 33,900 -780 Descending Kansas City Center
08:53AM 40.0353 -90.6536 46° Northeast 444 511 33,200 -960 Descending Kansas City Center
08:54AM 40.1411 -90.5153 45° Northeast 447 514 32,000 -1,140 Descending Kansas City Center
08:55AM 40.1578 -90.4931 46° Northeast 445 512 31,800 -780 Descending Chicago Center
08:56AM 40.2461 -90.3767 45° Northeast 450 518 31,000 -420 Descending Chicago Center
08:57AM 40.3317 -90.2608 46° Northeast 445 512 31,000  Level Chicago Center
08:58AM 40.4178 -90.1444 46° Northeast 445 512 31,000 -1,020 Level Chicago Center
08:59AM 40.5086 -90.0233 45° Northeast 442 509 28,900 -2,220 Descending Chicago Center
09:00AM 40.5911 -89.9125 46° Northeast 429 494 26,500 -2,040 Descending Chicago Center
09:01AM 40.6683 -89.8028 47° Northeast 415 478 24,700 -1,740 Descending Chicago Center
09:02AM 40.7414 -89.6511 58° Northeast 411 473 23,000 -1,860 Descending Chicago Center
09:03AM 40.7889 -89.5414 60° Northeast 394 453 21,000 -2,040 Descending Chicago Center
09:04AM 40.8408 -89.4197 61° Northeast 382 440 18,900 -1,740 Descending Chicago Center
09:05AM 40.9169 -89.2883 52° Northeast 379 436 17,500 -1,200 Descending Chicago Center
09:06AM 40.9861 -89.1839 49° Northeast 379 436 16,500 -960 Descending Chicago Center
09:07AM 41.0472 -89.0931 48° Northeast 369 425 15,600 -1,140 Descending Chicago Center
09:08AM 41.1272 -88.9694 49° Northeast 369 425 14,200 -1,740 Descending Chicago Center
09:09AM 41.1928 -88.8683 49° Northeast 365 420 12,100 -1,920 Descending Chicago Center
09:10AM 41.2544 -88.7692 50° Northeast 353 406 10,300 -1,320 Descending Chicago Center
09:11AM 41.3125 -88.6831 48° Northeast 319 367 9,400 -1,200 Descending Chicago Center
09:12AM 41.3656 -88.5986 50° Northeast 301 346 7,900 -1,440 Descending Chicago Center
09:13AM 41.4192 -88.5161 49° Northeast 297 342 6,500 -960 Descending Chicago Center
09:14AM 41.4758 -88.4194 52° Northeast 280 322 6,000 -300 Descending Chicago Center
09:15AM 41.4939 -88.3208 76° East 278 320 6,000  Level Chicago Center
09:16AM 41.5136 -88.2217 75° East 278 320 6,000 -540 Level Chicago Center
09:17AM 41.5333 -88.1206 75° East 278 320 5,000 -540 Descending Chicago Center
09:18AM 41.5533 -88.0183 75° East 281 323 5,000  Level Chicago Center
09:19AM 41.5739 -87.9172 75° East 280 322 5,000  Level Chicago Center
09:20AM 41.5936 -87.8172 75° East 280 322 5,000 -360 Level Chicago Center
09:21AM 41.6325 -87.7136 63° Northeast 272 313 4,300 -840 Descending Chicago Center
09:22AM 41.6667 -87.6500 54° Northeast 249 287 3,500 -960 Descending Chicago TRACON
09:23AM 41.7333 -87.6333 11° North 218 251 2,600 -600 Descending Chicago TRACON
09:24AM 41.7833 -87.6500 346° North 203 234 2,400 -420 Descending Chicago TRACON
09:25AM 41.8167 -87.6833 323° Northwest 162 186 1,800 -660 Descending Chicago TRACON
09:26AM 41.8167 -87.7167 270° West 112 129 1,100 -720 Descending Chicago TRACON